createdAt,value
2022-12-18T00:00:13.237Z,96.31
2022-12-18T00:03:01.930Z,96.00
2022-12-18T00:05:30.969Z,96.06
2022-12-18T00:07:59.498Z,96.17
2022-12-18T00:10:29.761Z,96.27
2022-12-18T00:12:58.306Z,96.19
2022-12-18T00:15:26.963Z,96.24
2022-12-18T00:17:55.490Z,96.25
2022-12-18T00:20:26.726Z,96.23
2022-12-18T00:22:56.032Z,96.27
2022-12-18T00:25:24.633Z,96.31
2022-12-18T00:27:53.245Z,96.49
2022-12-18T00:30:21.990Z,96.45
2022-12-18T00:32:50.549Z,96.43
2022-12-18T00:35:19.253Z,96.43
2022-12-18T00:37:47.804Z,96.47
2022-12-18T00:40:16.504Z,96.45
2022-12-18T00:42:57.044Z,96.74
2022-12-18T00:45:28.668Z,96.71
2022-12-18T00:47:57.619Z,96.62
2022-12-18T00:50:26.684Z,96.77
2022-12-18T00:52:55.250Z,96.78
2022-12-18T00:55:24.305Z,96.69
2022-12-18T00:57:53.678Z,96.67
2022-12-18T01:00:23.215Z,96.70
2022-12-18T01:02:52.183Z,96.73
2022-12-18T01:05:21.011Z,96.53
2022-12-18T01:07:49.668Z,96.51
2022-12-18T01:10:18.660Z,96.56
2022-12-18T01:12:47.245Z,96.74
2022-12-18T01:15:16.821Z,96.53
2022-12-18T01:17:45.583Z,96.80
2022-12-18T01:20:15.097Z,96.86
2022-12-18T01:22:43.678Z,96.95
2022-12-18T01:25:12.193Z,96.76
2022-12-18T01:27:40.856Z,96.80
2022-12-18T01:30:10.391Z,96.67
2022-12-18T01:32:39.081Z,97.01
2022-12-18T01:35:08.547Z,96.84
2022-12-18T01:37:37.062Z,97.06
2022-12-18T01:40:06.616Z,96.99
2022-12-18T01:42:35.211Z,97.16
2022-12-18T01:45:12.444Z,96.83
2022-12-18T01:48:09.749Z,96.73
2022-12-18T01:50:42.966Z,96.82
2022-12-18T01:53:19.971Z,96.83
2022-12-18T01:55:54.813Z,96.77
2022-12-18T01:58:53.810Z,96.74
2022-12-18T02:01:24.876Z,96.95
2022-12-18T02:03:54.177Z,97.06
2022-12-18T02:06:34.383Z,96.87
2022-12-18T02:09:16.221Z,97.25
2022-12-18T02:12:26.338Z,97.31
2022-12-18T02:15:03.811Z,97.43
2022-12-18T02:17:48.824Z,97.40
2022-12-18T02:20:55.208Z,97.52
2022-12-18T02:23:44.017Z,97.64
2022-12-18T02:26:34.722Z,97.32
2022-12-18T02:29:12.488Z,97.05
2022-12-18T02:31:52.546Z,96.91
2022-12-18T02:34:27.771Z,97.05
2022-12-18T02:36:58.881Z,97.12
2022-12-18T02:39:30.544Z,97.01
2022-12-18T02:42:00.704Z,97.06
2022-12-18T02:44:29.209Z,96.94
2022-12-18T02:46:57.962Z,96.83
2022-12-18T02:50:00.476Z,96.52
2022-12-18T02:53:05.292Z,96.65
2022-12-18T02:56:04.749Z,96.61
2022-12-18T02:58:45.720Z,96.86
2022-12-18T03:01:34.661Z,96.77
2022-12-18T03:04:22.521Z,96.82
2022-12-18T03:06:56.906Z,96.53
2022-12-18T03:09:37.638Z,96.47
2022-12-18T03:12:24.021Z,96.37
2022-12-18T03:15:18.284Z,96.18
2022-12-18T03:17:53.843Z,96.05
2022-12-18T03:20:26.862Z,96.25
2022-12-18T03:23:03.798Z,96.14
2022-12-18T03:25:33.988Z,96.07
2022-12-18T03:28:06.513Z,96.23
2022-12-18T03:30:39.559Z,96.02
2022-12-18T03:33:22.848Z,96.30
2022-12-18T03:35:51.758Z,96.09
2022-12-18T03:38:20.628Z,95.91
2022-12-18T03:41:15.486Z,95.80
2022-12-18T03:43:58.806Z,95.74
2022-12-18T03:46:48.157Z,95.69
2022-12-18T03:49:31.401Z,95.57
2022-12-18T03:52:12.243Z,95.75
2022-12-18T03:54:42.543Z,95.63
2022-12-18T03:57:19.442Z,95.81
2022-12-18T03:59:52.538Z,95.59
2022-12-18T04:02:23.852Z,95.45
2022-12-18T04:04:59.078Z,95.50
2022-12-18T04:07:28.457Z,95.44
2022-12-18T04:10:00.896Z,95.29
2022-12-18T04:12:30.955Z,94.99
2022-12-18T04:14:59.479Z,94.79
2022-12-18T04:17:27.987Z,95.13
2022-12-18T04:19:56.518Z,95.00
2022-12-18T04:22:25.063Z,94.75
2022-12-18T04:24:53.633Z,94.91
2022-12-18T04:27:22.684Z,94.53
2022-12-18T04:29:51.276Z,94.67
2022-12-18T04:32:20.103Z,94.78
2022-12-18T04:34:49.033Z,94.82
2022-12-18T04:37:17.616Z,94.93
2022-12-18T04:39:46.160Z,94.83
2022-12-18T04:42:14.832Z,94.86
2022-12-18T04:44:43.313Z,95.14
2022-12-18T04:47:11.851Z,94.84
2022-12-18T04:49:40.486Z,94.81
2022-12-18T04:52:09.043Z,95.11
2022-12-18T04:54:37.703Z,94.95
2022-12-18T04:57:06.227Z,94.69
2022-12-18T04:59:34.807Z,94.63
2022-12-18T05:02:03.405Z,94.10
2022-12-18T05:04:32.463Z,94.38
2022-12-18T05:07:01.137Z,94.38
2022-12-18T05:09:29.699Z,94.69
2022-12-18T05:11:58.258Z,94.23
2022-12-18T05:14:28.673Z,94.41
2022-12-18T05:17:00.848Z,94.49
2022-12-18T05:19:30.006Z,94.08
2022-12-18T05:21:58.826Z,93.56
2022-12-18T05:24:27.398Z,93.61
2022-12-18T05:26:57.454Z,93.75
2022-12-18T05:29:26.276Z,93.92
2022-12-18T05:31:54.847Z,93.98
2022-12-18T05:34:23.443Z,93.75
2022-12-18T05:36:51.949Z,93.92
2022-12-18T05:39:20.422Z,93.59
2022-12-18T05:41:48.988Z,93.67
2022-12-18T05:44:17.521Z,93.50
2022-12-18T05:46:46.206Z,93.43
2022-12-18T05:49:14.757Z,93.53
2022-12-18T05:51:43.257Z,93.52
2022-12-18T05:54:12.193Z,93.66
2022-12-18T05:56:45.548Z,93.56
2022-12-18T05:59:17.043Z,93.68
2022-12-18T06:01:45.664Z,93.78
2022-12-18T06:04:14.341Z,93.94
2022-12-18T06:06:42.877Z,93.87
2022-12-18T06:09:13.008Z,93.81
2022-12-18T06:11:41.710Z,93.87
2022-12-18T06:14:11.101Z,93.56
2022-12-18T06:16:39.909Z,93.53
2022-12-18T06:19:08.483Z,93.62
2022-12-18T06:21:37.160Z,93.58
2022-12-18T06:24:06.305Z,93.61
2022-12-18T06:26:34.850Z,93.69
2022-12-18T06:29:03.665Z,93.63
2022-12-18T06:31:32.355Z,93.21
2022-12-18T06:34:04.989Z,93.34
2022-12-18T06:36:33.836Z,93.48
2022-12-18T06:39:02.449Z,93.63
2022-12-18T06:41:31.173Z,93.80
2022-12-18T06:44:00.264Z,93.72
2022-12-18T06:46:29.010Z,93.50
2022-12-18T06:48:57.603Z,93.70
2022-12-18T06:51:27.455Z,93.61
2022-12-18T06:53:56.088Z,93.57
2022-12-18T06:56:24.740Z,93.59
2022-12-18T06:58:53.626Z,93.55
2022-12-18T07:01:23.191Z,93.53
2022-12-18T07:03:57.208Z,93.36
2022-12-18T07:06:27.210Z,93.37
2022-12-18T07:08:56.359Z,93.51
2022-12-18T07:11:25.662Z,93.43
2022-12-18T07:13:55.497Z,93.58
2022-12-18T07:16:25.639Z,93.69
2022-12-18T07:18:56.667Z,93.64
2022-12-18T07:21:25.791Z,93.55
2022-12-18T07:23:54.394Z,93.56
2022-12-18T07:26:23.842Z,93.70
2022-12-18T07:28:58.635Z,93.43
2022-12-18T07:31:28.205Z,93.62
2022-12-18T07:33:56.901Z,93.79
2022-12-18T07:36:26.114Z,93.81
2022-12-18T07:38:54.670Z,93.37
2022-12-18T07:41:23.450Z,93.37
2022-12-18T07:43:52.276Z,92.89
2022-12-18T07:46:21.052Z,92.61
2022-12-18T07:48:50.446Z,92.73
2022-12-18T07:51:19.965Z,92.97
2022-12-18T07:53:49.331Z,92.76
2022-12-18T07:56:30.971Z,92.69
2022-12-18T07:59:00.306Z,93.04
2022-12-18T08:01:29.377Z,92.96
2022-12-18T08:03:58.983Z,92.96
2022-12-18T08:06:27.842Z,92.84
2022-12-18T08:08:57.173Z,92.71
2022-12-18T08:11:28.723Z,92.68
2022-12-18T08:13:57.936Z,92.61
2022-12-18T08:16:26.812Z,92.46
2022-12-18T08:18:55.987Z,91.88
2022-12-18T08:21:28.680Z,91.67
2022-12-18T08:24:01.197Z,91.88
2022-12-18T08:26:32.557Z,91.86
2022-12-18T08:29:01.742Z,92.18
2022-12-18T08:31:32.277Z,92.00
2022-12-18T08:34:01.178Z,92.22
2022-12-18T08:36:29.682Z,91.91
2022-12-18T08:38:58.419Z,91.84
2022-12-18T08:41:27.761Z,91.86
2022-12-18T08:44:15.197Z,91.93
2022-12-18T08:46:44.973Z,91.74
2022-12-18T08:49:13.635Z,91.63
2022-12-18T08:51:42.175Z,91.51
2022-12-18T08:54:14.736Z,91.59
2022-12-18T08:56:43.308Z,91.57
2022-12-18T08:59:18.858Z,91.25
2022-12-18T09:01:48.883Z,91.18
2022-12-18T09:04:18.121Z,91.61
2022-12-18T09:06:46.685Z,91.10
2022-12-18T09:09:15.343Z,90.89
2022-12-18T09:11:43.975Z,90.53
2022-12-18T09:14:12.570Z,90.64
2022-12-18T09:16:41.197Z,91.08
2022-12-18T09:19:10.867Z,91.21
2022-12-18T09:21:47.725Z,91.38
2022-12-18T09:24:17.765Z,91.32
2022-12-18T09:26:47.438Z,91.25
2022-12-18T09:29:19.086Z,90.60
2022-12-18T09:31:48.401Z,90.77
2022-12-18T09:34:17.845Z,90.67
2022-12-18T09:36:46.389Z,90.37
2022-12-18T09:39:16.066Z,89.82
2022-12-18T09:41:55.888Z,89.73
2022-12-18T09:44:25.893Z,89.58
2022-12-18T09:47:16.236Z,89.44
2022-12-18T09:49:50.552Z,89.13
2022-12-18T09:52:33.150Z,89.27
2022-12-18T09:55:24.004Z,89.63
2022-12-18T09:57:58.405Z,89.22
2022-12-18T10:00:27.001Z,89.05
2022-12-18T10:03:04.138Z,88.64
2022-12-18T10:06:03.237Z,88.19
2022-12-18T10:08:50.317Z,88.11
2022-12-18T10:12:04.723Z,88.58
2022-12-18T10:14:49.548Z,88.85
2022-12-18T10:17:35.941Z,88.37
2022-12-18T10:20:42.840Z,88.22
2022-12-18T10:23:26.566Z,88.45
2022-12-18T10:26:05.372Z,88.05
2022-12-18T10:28:38.239Z,88.44
2022-12-18T10:31:18.240Z,87.91
2022-12-18T10:33:47.627Z,87.26
2022-12-18T10:36:16.551Z,87.80
2022-12-18T10:38:45.160Z,87.88
2022-12-18T10:41:24.254Z,87.85
2022-12-18T10:44:21.223Z,87.90
2022-12-18T10:46:57.060Z,87.67
2022-12-18T10:49:31.057Z,87.59
2022-12-18T10:52:20.093Z,87.16
2022-12-18T10:55:04.331Z,86.84
2022-12-18T10:57:42.746Z,86.89
2022-12-18T11:00:31.704Z,86.71
2022-12-18T11:03:00.580Z,86.29
2022-12-18T11:05:33.988Z,86.35
2022-12-18T11:08:03.032Z,86.64
2022-12-18T11:10:36.387Z,86.94
2022-12-18T11:13:28.618Z,87.21
2022-12-18T11:15:57.777Z,87.08
2022-12-18T11:18:35.928Z,86.82
2022-12-18T11:21:09.151Z,86.66
2022-12-18T11:23:45.893Z,86.78
2022-12-18T11:26:14.616Z,87.18
2022-12-18T11:28:52.229Z,86.73
2022-12-18T11:31:29.761Z,86.35
2022-12-18T11:37:02.103Z,85.86
2022-12-18T11:39:46.313Z,85.78
2022-12-18T11:42:55.591Z,85.44
2022-12-18T11:45:35.225Z,86.05
2022-12-18T11:48:26.565Z,85.96
2022-12-18T11:51:01.425Z,85.72
2022-12-18T11:53:31.448Z,86.19
2022-12-18T11:56:15.076Z,86.24
2022-12-18T11:59:14.308Z,85.94
2022-12-18T12:01:59.468Z,86.09
2022-12-18T12:05:00.604Z,86.00
2022-12-18T12:08:03.539Z,86.00
2022-12-18T12:10:59.997Z,86.45
2022-12-18T12:13:54.619Z,86.66
2022-12-18T12:16:38.350Z,86.16
2022-12-18T12:19:29.896Z,85.73
2022-12-18T12:22:19.968Z,85.70
2022-12-18T12:25:13.309Z,85.37
2022-12-18T12:28:06.738Z,85.28
2022-12-18T12:30:46.596Z,85.23
2022-12-18T12:33:37.822Z,85.03
2022-12-18T12:36:40.109Z,84.92
2022-12-18T12:39:17.373Z,84.71
2022-12-18T12:42:06.374Z,85.06
2022-12-18T12:44:55.683Z,84.99
2022-12-18T12:47:36.978Z,85.25
2022-12-18T12:50:15.426Z,85.00
2022-12-18T12:52:50.683Z,84.74
2022-12-18T12:55:28.186Z,84.78
2022-12-18T12:58:24.494Z,84.58
2022-12-18T13:01:05.971Z,84.23
2022-12-18T13:03:48.398Z,83.92
2022-12-18T13:06:33.784Z,84.18
2022-12-18T13:09:04.369Z,84.01
2022-12-18T13:12:01.379Z,84.13
2022-12-18T13:14:40.412Z,84.46
2022-12-18T13:17:20.965Z,84.31
2022-12-18T13:19:52.971Z,83.92
2022-12-18T13:22:32.773Z,83.97
2022-12-18T13:25:01.801Z,84.20
2022-12-18T13:27:45.743Z,83.85
2022-12-18T13:30:33.106Z,84.13
2022-12-18T13:33:19.583Z,84.15
2022-12-18T13:35:48.127Z,84.29
2022-12-18T13:38:43.540Z,84.29
2022-12-18T13:41:27.496Z,84.48
2022-12-18T13:44:10.977Z,84.46
2022-12-18T13:46:50.789Z,84.69
2022-12-18T13:49:39.776Z,84.78
2022-12-18T13:52:22.149Z,84.67
2022-12-18T13:54:56.039Z,85.08
2022-12-18T13:57:36.517Z,85.22
2022-12-18T14:00:23.001Z,85.29
2022-12-18T14:02:52.664Z,85.52
2022-12-18T14:06:02.543Z,85.54
2022-12-18T14:08:40.265Z,85.61
2022-12-18T14:11:23.355Z,85.68
2022-12-18T14:13:52.142Z,85.86
2022-12-18T14:16:21.063Z,85.86
2022-12-18T14:19:04.150Z,85.59
2022-12-18T14:21:51.097Z,85.67
2022-12-18T14:24:22.728Z,85.66
2022-12-18T14:26:52.299Z,85.38
2022-12-18T14:29:32.071Z,85.63
2022-12-18T14:32:18.938Z,85.74
2022-12-18T14:34:55.141Z,85.76
2022-12-18T14:37:28.415Z,85.99
2022-12-18T14:40:10.862Z,86.40
2022-12-18T14:42:40.077Z,86.36
2022-12-18T14:45:43.259Z,86.24
2022-12-18T14:48:24.077Z,86.29
2022-12-18T14:51:07.035Z,86.30
2022-12-18T14:54:03.509Z,86.12
2022-12-18T14:56:38.147Z,86.30
2022-12-18T14:59:24.654Z,86.43
2022-12-18T15:02:22.790Z,86.74
2022-12-18T15:05:17.570Z,86.92
2022-12-18T15:07:59.285Z,86.61
2022-12-18T15:11:39.005Z,87.08
2022-12-18T15:14:43.232Z,86.98
2022-12-18T15:17:24.286Z,86.78
2022-12-18T15:20:02.376Z,86.91
2022-12-18T15:22:36.521Z,86.99
2022-12-18T15:25:35.407Z,87.11
2022-12-18T15:28:16.974Z,86.95
2022-12-18T15:31:10.284Z,87.32
2022-12-18T15:33:44.066Z,87.07
2022-12-18T15:36:18.032Z,87.05
2022-12-18T15:38:54.711Z,87.10
2022-12-18T15:41:25.522Z,86.92
2022-12-18T15:43:54.749Z,87.09
2022-12-18T15:46:26.316Z,87.30
2022-12-18T15:49:02.552Z,87.27
2022-12-18T15:51:38.231Z,87.36
2022-12-18T15:54:14.347Z,87.24
2022-12-18T15:57:01.497Z,86.97
2022-12-18T15:59:30.073Z,87.18
2022-12-18T16:01:59.404Z,87.41
2022-12-18T16:04:28.461Z,87.04
2022-12-18T16:09:48.688Z,86.93
2022-12-18T16:12:26.155Z,86.76
2022-12-18T16:14:54.776Z,86.75
2022-12-18T16:17:23.391Z,86.91
2022-12-18T16:19:52.097Z,86.99
2022-12-18T16:22:28.257Z,86.86
2022-12-18T16:24:58.212Z,86.72
2022-12-18T16:27:27.235Z,86.55
2022-12-18T16:29:55.899Z,86.49
2022-12-18T16:32:24.792Z,86.24
2022-12-18T16:34:53.546Z,86.08
2022-12-18T16:37:22.205Z,86.20
2022-12-18T16:39:50.769Z,85.99
2022-12-18T16:42:21.186Z,86.11
2022-12-18T16:44:51.251Z,85.97
2022-12-18T16:47:20.244Z,86.24
2022-12-18T16:49:51.910Z,86.34
2022-12-18T16:52:21.182Z,86.48
2022-12-18T16:54:49.872Z,86.53
2022-12-18T16:57:21.609Z,86.56
2022-12-18T16:59:54.548Z,86.68
2022-12-18T17:02:27.003Z,86.72
2022-12-18T17:04:58.579Z,86.85
2022-12-18T17:07:28.513Z,86.90
2022-12-18T17:09:58.030Z,87.07
2022-12-18T17:12:27.455Z,87.04
2022-12-18T17:14:56.428Z,86.96
2022-12-18T17:17:24.999Z,86.91
2022-12-18T17:19:53.639Z,87.28
2022-12-18T17:22:23.482Z,87.08
2022-12-18T17:24:52.399Z,86.87
2022-12-18T17:27:21.065Z,86.68
2022-12-18T17:29:49.937Z,86.57
2022-12-18T17:32:18.535Z,86.67
2022-12-18T17:34:47.318Z,86.70
2022-12-18T17:37:16.334Z,86.75
2022-12-18T17:39:44.918Z,86.56
2022-12-18T17:42:14.865Z,86.79
2022-12-18T17:44:44.980Z,86.98
2022-12-18T17:47:14.389Z,87.37
2022-12-18T17:49:43.100Z,87.16
2022-12-18T17:52:11.758Z,87.32
2022-12-18T17:54:42.157Z,87.25
2022-12-18T17:57:11.207Z,87.17
2022-12-18T17:59:39.877Z,87.30
2022-12-18T18:02:11.937Z,87.11
2022-12-18T18:04:40.911Z,87.35
2022-12-18T18:07:10.221Z,87.05
2022-12-18T18:09:38.867Z,86.97
2022-12-18T18:12:26.336Z,86.85
2022-12-18T18:14:54.886Z,86.80
2022-12-18T18:17:23.617Z,86.56
2022-12-18T18:19:52.181Z,87.06
2022-12-18T18:22:20.737Z,86.88
2022-12-18T18:24:51.909Z,86.74
2022-12-18T18:27:20.523Z,86.36
2022-12-18T18:29:49.172Z,86.35
2022-12-18T18:32:17.884Z,86.19
2022-12-18T18:34:46.486Z,86.06
2022-12-18T18:37:15.101Z,86.13
2022-12-18T18:39:43.645Z,86.08
2022-12-18T18:42:12.957Z,86.29
2022-12-18T18:44:45.868Z,86.38
2022-12-18T18:47:17.593Z,86.63
2022-12-18T18:49:46.272Z,86.80
2022-12-18T18:52:15.429Z,87.09
2022-12-18T18:55:03.844Z,86.92
2022-12-18T18:57:33.844Z,87.40
2022-12-18T19:00:02.543Z,87.37
2022-12-18T19:02:31.248Z,87.49
2022-12-18T19:04:59.953Z,87.26
2022-12-18T19:07:30.543Z,87.27
2022-12-18T19:10:04.656Z,87.41
2022-12-18T19:12:55.464Z,87.07
2022-12-18T19:15:24.146Z,86.84
2022-12-18T19:17:53.311Z,86.64
2022-12-18T19:20:22.123Z,86.38
2022-12-18T19:22:55.732Z,86.36
2022-12-18T19:25:38.125Z,85.88
2022-12-18T19:28:21.811Z,86.13
2022-12-18T19:30:58.804Z,86.44
2022-12-18T19:33:43.254Z,86.19
2022-12-18T19:36:19.401Z,86.73
2022-12-18T19:38:49.355Z,87.18
2022-12-18T19:41:18.923Z,87.05
2022-12-18T19:43:48.505Z,87.13
2022-12-18T19:46:22.089Z,87.22
2022-12-18T19:48:51.595Z,87.19
2022-12-18T19:51:27.764Z,87.28
2022-12-18T19:53:59.820Z,87.36
2022-12-18T19:56:33.798Z,87.04
2022-12-18T19:59:05.291Z,87.19
2022-12-18T20:01:36.725Z,87.36
2022-12-18T20:04:05.699Z,87.24
2022-12-18T20:06:53.999Z,87.16
2022-12-18T20:09:22.873Z,87.16
2022-12-18T20:11:52.378Z,87.08
2022-12-18T20:14:23.215Z,87.20
2022-12-18T20:16:52.652Z,87.27
2022-12-18T20:19:22.607Z,87.39
2022-12-18T20:21:51.325Z,87.45
2022-12-18T20:24:20.012Z,87.32
2022-12-18T20:26:48.613Z,87.26
2022-12-18T20:29:17.952Z,87.59
2022-12-18T20:31:46.594Z,87.16
2022-12-18T20:34:15.225Z,87.50
2022-12-18T20:36:44.685Z,87.50
2022-12-18T20:39:14.405Z,87.53
2022-12-18T20:41:45.781Z,87.78
2022-12-18T20:44:21.558Z,87.69
2022-12-18T20:46:56.500Z,87.98
2022-12-18T20:49:26.885Z,87.94
2022-12-18T20:51:57.940Z,87.70
2022-12-18T20:54:27.638Z,87.92
2022-12-18T20:56:56.898Z,87.69
2022-12-18T20:59:26.102Z,87.72
2022-12-18T21:01:55.724Z,87.51
2022-12-18T21:04:24.972Z,87.65
2022-12-18T21:07:00.455Z,87.07
2022-12-18T21:09:36.924Z,86.98
2022-12-18T21:12:40.354Z,86.60
2022-12-18T21:15:16.926Z,86.32
2022-12-18T21:17:46.338Z,86.25
2022-12-18T21:20:17.924Z,86.02
2022-12-18T21:22:49.349Z,85.98
2022-12-18T21:25:18.110Z,85.56
2022-12-18T21:27:46.658Z,85.66
2022-12-18T21:30:15.543Z,85.35
2022-12-18T21:32:44.273Z,85.49
2022-12-18T21:35:12.979Z,85.63
2022-12-18T21:37:41.529Z,85.73
2022-12-18T21:40:10.992Z,85.69
2022-12-18T21:42:58.222Z,85.53
2022-12-18T21:45:26.888Z,85.67
2022-12-18T21:47:55.525Z,85.66
2022-12-18T21:50:24.278Z,85.41
2022-12-18T21:52:52.751Z,85.44
2022-12-18T21:55:21.430Z,85.66
2022-12-18T21:57:50.338Z,85.49
2022-12-18T22:00:19.847Z,85.91
2022-12-18T22:03:02.323Z,85.85
2022-12-18T22:05:37.873Z,85.98
2022-12-18T22:08:07.593Z,86.36
2022-12-18T22:10:38.042Z,86.70
2022-12-18T22:13:07.689Z,87.10
2022-12-18T22:15:36.320Z,87.57
2022-12-18T22:18:04.977Z,87.78
2022-12-18T22:20:33.589Z,88.17
2022-12-18T22:23:05.601Z,88.22
2022-12-18T22:25:35.788Z,88.39
2022-12-18T22:28:26.275Z,88.52
2022-12-18T22:30:59.048Z,88.50
2022-12-18T22:33:28.639Z,88.59
2022-12-18T22:35:57.486Z,88.79
2022-12-18T22:38:26.030Z,88.68
2022-12-18T22:40:55.376Z,88.53
2022-12-18T22:43:24.108Z,88.51
2022-12-18T22:45:52.780Z,88.60
2022-12-18T22:48:21.358Z,88.29
2022-12-18T22:51:17.597Z,88.38
2022-12-18T22:53:46.961Z,88.22
2022-12-18T22:56:21.382Z,88.25
2022-12-18T22:58:52.636Z,87.91
2022-12-18T23:01:25.339Z,88.25
2022-12-18T23:03:55.098Z,88.10
2022-12-18T23:06:26.096Z,88.38
2022-12-18T23:08:58.290Z,87.91
2022-12-18T23:11:27.856Z,88.26
2022-12-18T23:13:56.719Z,88.08
2022-12-18T23:16:28.523Z,88.57
2022-12-18T23:18:57.247Z,88.25
2022-12-18T23:21:25.886Z,88.27
2022-12-18T23:23:56.007Z,88.64
2022-12-18T23:26:25.944Z,88.49
2022-12-18T23:28:57.841Z,88.43
2022-12-18T23:31:30.437Z,88.41
2022-12-18T23:46:29.862Z,87.89
2022-12-18T23:49:02.097Z,87.94
2022-12-18T23:51:32.163Z,87.86
2022-12-18T23:54:02.673Z,87.93
2022-12-18T23:56:31.540Z,88.01
2022-12-18T23:59:00.221Z,88.29
